Olivia, Texas
Current Conditions -  °F | °C
As of 3:55 AM on Friday 31 Oct 2014 (Local Time) from KPKV Reporting Station
Broken Clouds Broken Clouds  
Wind Chill: 20°   Ceiling: 9500
Heat Index: 20°   Visibility: 10mi
Dew Point: 19°   Wind: 8mph
Humidity: 91%   Direction: 40°NE
Pressure: 30.09"   Gusts: NA
Location:  28.5342°N, 96.663°W
Report Text: KPKV 310855Z AUTO 04007KT 10SM SCT018 SCT075 BKN095 21/19 A3009 RMK AO2 T02050190
Loading
Personal Weather Stations






























Interactive Weather Map
Tropical Storm Tracking
New forecast layout! Learn more

10-Day Weather Forecast

Advertisements
Track Severe Weather on mobile